sensor_id;sensor_type;location;lat;lon;timestamp;P1;durP1;ratioP1;P2;durP2;ratioP2
5878;SDS011;2965;42.640;23.370;2023-04-03T04:02:09;9.63;;;4.73;;
5878;SDS011;2965;42.640;23.370;2023-04-03T04:04:35;4.33;;;4.13;;
5878;SDS011;2965;42.640;23.370;2023-04-03T04:07:01;5.03;;;4.67;;
5878;SDS011;2965;42.640;23.370;2023-04-03T04:09:27;4.87;;;4.57;;
5878;SDS011;2965;42.640;23.370;2023-04-03T04:11:52;4.50;;;4.30;;
5878;SDS011;2965;42.640;23.370;2023-04-03T04:14:18;6.20;;;4.03;;
5878;SDS011;2965;42.640;23.370;2023-04-03T04:16:45;10.93;;;4.53;;
5878;SDS011;2965;42.640;23.370;2023-04-03T04:19:11;10.20;;;4.10;;
5878;SDS011;2965;42.640;23.370;2023-04-03T04:21:37;5.90;;;4.50;;
5878;SDS011;2965;42.640;23.370;2023-04-03T04:24:02;5.23;;;4.70;;
5878;SDS011;2965;42.640;23.370;2023-04-03T04:26:27;5.20;;;4.70;;
5878;SDS011;2965;42.640;23.370;2023-04-03T04:28:53;5.00;;;4.60;;
5878;SDS011;2965;42.640;23.370;2023-04-03T04:31:18;6.57;;;4.07;;
5878;SDS011;2965;42.640;23.370;2023-04-03T04:33:44;4.37;;;4.10;;
5878;SDS011;2965;42.640;23.370;2023-04-03T04:36:09;5.70;;;5.20;;
5878;SDS011;2965;42.640;23.370;2023-04-03T04:38:35;5.57;;;5.13;;
5878;SDS011;2965;42.640;23.370;2023-04-03T04:41:01;4.30;;;4.10;;
5878;SDS011;2965;42.640;23.370;2023-04-03T04:43:26;4.83;;;4.43;;
5878;SDS011;2965;42.640;23.370;2023-04-03T04:46:05;4.00;;;3.80;;
5878;SDS011;2965;42.640;23.370;2023-04-03T04:48:32;3.93;;;3.53;;
5878;SDS011;2965;42.640;23.370;2023-04-03T04:50:58;9.33;;;3.70;;
5878;SDS011;2965;42.640;23.370;2023-04-03T04:53:23;4.97;;;4.63;;
5878;SDS011;2965;42.640;23.370;2023-04-03T04:55:49;6.37;;;4.20;;
5878;SDS011;2965;42.640;23.370;2023-04-03T04:58:14;7.70;;;4.97;;
5878;SDS011;2965;42.640;23.370;2023-04-03T05:00:40;7.43;;;5.10;;
5878;SDS011;2965;42.640;23.370;2023-04-03T05:03:06;25.37;;;6.80;;
5878;SDS011;2965;42.640;23.370;2023-04-03T05:05:31;6.57;;;5.70;;
5878;SDS011;2965;42.640;23.370;2023-04-03T05:07:57;18.17;;;5.70;;
5878;SDS011;2965;42.640;23.370;2023-04-03T05:10:22;6.23;;;5.37;;
5878;SDS011;2965;42.640;23.370;2023-04-03T05:12:48;12.03;;;5.07;;
5878;SDS011;2965;42.640;23.370;2023-04-03T05:15:13;11.77;;;5.27;;
5878;SDS011;2965;42.640;23.370;2023-04-03T05:17:39;9.63;;;5.10;;
5878;SDS011;2965;42.640;23.370;2023-04-03T05:20:04;8.57;;;5.80;;
5878;SDS011;2965;42.640;23.370;2023-04-03T05:22:31;8.57;;;5.73;;
5878;SDS011;2965;42.640;23.370;2023-04-03T05:24:56;9.47;;;5.10;;
5878;SDS011;2965;42.640;23.370;2023-04-03T05:27:22;7.20;;;5.13;;
5878;SDS011;2965;42.640;23.370;2023-04-03T05:29:49;5.27;;;4.97;;
5878;SDS011;2965;42.640;23.370;2023-04-03T05:32:15;5.70;;;5.20;;
5878;SDS011;2965;42.640;23.370;2023-04-03T05:34:41;13.33;;;5.67;;
5878;SDS011;2965;42.640;23.370;2023-04-03T05:37:06;4.53;;;4.30;;
5878;SDS011;2965;42.640;23.370;2023-04-03T05:39:32;8.20;;;6.73;;
5878;SDS011;2965;42.640;23.370;2023-04-03T05:41:58;10.13;;;6.57;;
5878;SDS011;2965;42.640;23.370;2023-04-03T05:44:24;15.03;;;7.07;;
5878;SDS011;2965;42.640;23.370;2023-04-03T05:46:49;10.33;;;7.07;;
5878;SDS011;2965;42.640;23.370;2023-04-03T05:51:54;25.73;;;6.60;;
5878;SDS011;2965;42.640;23.370;2023-04-03T05:54:26;10.43;;;6.20;;
5878;SDS011;2965;42.640;23.370;2023-04-03T05:56:53;8.77;;;6.53;;
5878;SDS011;2965;42.640;23.370;2023-04-03T05:59:19;8.97;;;6.23;;
5878;SDS011;2965;42.640;23.370;2023-04-03T06:01:45;19.93;;;8.00;;
5878;SDS011;2965;42.640;23.370;2023-04-03T06:04:11;14.03;;;7.37;;
5878;SDS011;2965;42.640;23.370;2023-04-03T06:09:17;13.27;;;7.73;;
5878;SDS011;2965;42.640;23.370;2023-04-03T06:11:44;16.60;;;9.33;;
5878;SDS011;2965;42.640;23.370;2023-04-03T06:14:09;14.13;;;8.20;;
5878;SDS011;2965;42.640;23.370;2023-04-03T06:16:35;27.83;;;9.50;;
5878;SDS011;2965;42.640;23.370;2023-04-03T06:19:01;22.67;;;12.00;;
5878;SDS011;2965;42.640;23.370;2023-04-03T06:21:27;26.33;;;14.13;;
5878;SDS011;2965;42.640;23.370;2023-04-03T06:23:52;24.43;;;12.87;;
5878;SDS011;2965;42.640;23.370;2023-04-03T06:26:18;31.63;;;13.87;;
5878;SDS011;2965;42.640;23.370;2023-04-03T06:28:43;22.10;;;11.70;;
5878;SDS011;2965;42.640;23.370;2023-04-03T06:31:09;16.77;;;11.30;;
5878;SDS011;2965;42.640;23.370;2023-04-03T06:33:34;30.50;;;13.60;;
5878;SDS011;2965;42.640;23.370;2023-04-03T06:36:03;19.70;;;11.77;;
5878;SDS011;2965;42.640;23.370;2023-04-03T06:38:29;19.07;;;10.17;;
5878;SDS011;2965;42.640;23.370;2023-04-03T06:40:55;18.80;;;13.43;;
5878;SDS011;2965;42.640;23.370;2023-04-03T06:43:21;21.70;;;9.30;;
5878;SDS011;2965;42.640;23.370;2023-04-03T06:45:46;14.73;;;8.20;;
5878;SDS011;2965;42.640;23.370;2023-04-03T07:03:44;17.20;;;8.70;;
5878;SDS011;2965;42.640;23.370;2023-04-03T07:06:12;14.40;;;9.57;;
5878;SDS011;2965;42.640;23.370;2023-04-03T07:08:38;18.10;;;9.73;;
5878;SDS011;2965;42.640;23.370;2023-04-03T07:11:04;13.00;;;10.10;;
5878;SDS011;2965;42.640;23.370;2023-04-03T07:13:30;20.70;;;11.87;;
5878;SDS011;2965;42.640;23.370;2023-04-03T07:15:56;19.40;;;11.30;;
5878;SDS011;2965;42.640;23.370;2023-04-03T07:18:21;31.27;;;11.00;;
5878;SDS011;2965;42.640;23.370;2023-04-03T07:20:48;11.10;;;9.63;;
5878;SDS011;2965;42.640;23.370;2023-04-03T07:23:13;37.67;;;11.60;;
5878;SDS011;2965;42.640;23.370;2023-04-03T07:25:45;17.80;;;12.07;;
5878;SDS011;2965;42.640;23.370;2023-04-03T07:28:12;28.73;;;12.87;;
5878;SDS011;2965;42.640;23.370;2023-04-03T07:33:23;23.90;;;14.03;;
5878;SDS011;2965;42.640;23.370;2023-04-03T07:35:49;29.40;;;13.70;;
5878;SDS011;2965;42.640;23.370;2023-04-03T07:38:15;41.00;;;17.83;;
5878;SDS011;2965;42.640;23.370;2023-04-03T07:40:45;37.50;;;14.73;;
5878;SDS011;2965;42.640;23.370;2023-04-03T07:43:14;47.43;;;15.97;;
5878;SDS011;2965;42.640;23.370;2023-04-03T07:45:40;51.87;;;16.90;;
5878;SDS011;2965;42.640;23.370;2023-04-03T07:48:06;46.03;;;19.00;;
5878;SDS011;2965;42.640;23.370;2023-04-03T07:50:32;31.70;;;16.10;;
5878;SDS011;2965;42.640;23.370;2023-04-03T07:55:28;50.90;;;16.53;;
5878;SDS011;2965;42.640;23.370;2023-04-03T07:57:54;25.83;;;15.50;;
5878;SDS011;2965;42.640;23.370;2023-04-03T08:00:20;41.20;;;15.80;;
5878;SDS011;2965;42.640;23.370;2023-04-03T08:02:46;25.40;;;15.43;;
5878;SDS011;2965;42.640;23.370;2023-04-03T08:05:17;34.87;;;18.43;;
5878;SDS011;2965;42.640;23.370;2023-04-03T08:07:43;30.83;;;18.13;;
5878;SDS011;2965;42.640;23.370;2023-04-03T08:10:09;40.53;;;19.47;;
5878;SDS011;2965;42.640;23.370;2023-04-03T08:12:34;36.87;;;18.53;;
5878;SDS011;2965;42.640;23.370;2023-04-03T08:15:01;50.50;;;22.70;;
5878;SDS011;2965;42.640;23.370;2023-04-03T08:17:28;46.03;;;20.07;;
5878;SDS011;2965;42.640;23.370;2023-04-03T08:19:53;39.10;;;19.70;;
5878;SDS011;2965;42.640;23.370;2023-04-03T08:22:19;36.23;;;18.77;;
5878;SDS011;2965;42.640;23.370;2023-04-03T08:24:44;50.23;;;22.00;;
5878;SDS011;2965;42.640;23.370;2023-04-03T08:27:10;41.47;;;20.60;;
5878;SDS011;2965;42.640;23.370;2023-04-03T08:29:35;41.80;;;21.07;;
5878;SDS011;2965;42.640;23.370;2023-04-03T08:32:02;42.60;;;19.60;;
5878;SDS011;2965;42.640;23.370;2023-04-03T08:34:28;27.87;;;17.63;;
5878;SDS011;2965;42.640;23.370;2023-04-03T08:36:54;39.63;;;16.90;;
5878;SDS011;2965;42.640;23.370;2023-04-03T08:39:20;32.10;;;16.03;;
5878;SDS011;2965;42.640;23.370;2023-04-03T08:41:45;41.57;;;15.93;;
5878;SDS011;2965;42.640;23.370;2023-04-03T08:49:31;39.63;;;18.00;;
5878;SDS011;2965;42.640;23.370;2023-04-03T08:52:13;41.27;;;18.77;;
5878;SDS011;2965;42.640;23.370;2023-04-03T08:57:16;26.93;;;15.83;;
5878;SDS011;2965;42.640;23.370;2023-04-03T08:59:45;28.63;;;16.37;;
5878;SDS011;2965;42.640;23.370;2023-04-03T09:02:45;28.20;;;16.80;;
5878;SDS011;2965;42.640;23.370;2023-04-03T09:05:20;32.53;;;16.60;;
5878;SDS011;2965;42.640;23.370;2023-04-03T09:08:27;32.80;;;18.43;;
5878;SDS011;2965;42.640;23.370;2023-04-03T09:11:39;32.47;;;15.37;;
5878;SDS011;2965;42.640;23.370;2023-04-03T09:18:56;34.63;;;14.23;;
5878;SDS011;2965;42.640;23.370;2023-04-03T09:21:32;26.57;;;13.93;;
5878;SDS011;2965;42.640;23.370;2023-04-03T09:24:02;22.37;;;12.23;;
5878;SDS011;2965;42.640;23.370;2023-04-03T09:26:36;21.53;;;11.90;;
5878;SDS011;2965;42.640;23.370;2023-04-03T09:29:07;14.90;;;11.33;;
5878;SDS011;2965;42.640;23.370;2023-04-03T09:31:38;11.83;;;8.73;;
5878;SDS011;2965;42.640;23.370;2023-04-03T09:34:06;10.47;;;9.50;;
5878;SDS011;2965;42.640;23.370;2023-04-03T09:36:44;9.90;;;7.73;;
5878;SDS011;2965;42.640;23.370;2023-04-03T09:39:13;4.90;;;4.60;;
5878;SDS011;2965;42.640;23.370;2023-04-03T09:44:30;3.30;;;3.10;;
5878;SDS011;2965;42.640;23.370;2023-04-03T09:52:44;3.77;;;3.57;;
5878;SDS011;2965;42.640;23.370;2023-04-03T09:55:29;5.00;;;4.60;;
5878;SDS011;2965;42.640;23.370;2023-04-03T09:58:05;9.70;;;5.70;;
5878;SDS011;2965;42.640;23.370;2023-04-03T10:00:55;4.07;;;3.87;;
5878;SDS011;2965;42.640;23.370;2023-04-03T10:03:27;6.33;;;5.70;;
5878;SDS011;2965;42.640;23.370;2023-04-03T10:05:55;9.20;;;4.60;;
5878;SDS011;2965;42.640;23.370;2023-04-03T10:11:06;5.30;;;4.07;;
5878;SDS011;2965;42.640;23.370;2023-04-03T10:13:49;7.37;;;4.80;;
5878;SDS011;2965;42.640;23.370;2023-04-03T10:16:25;11.97;;;5.10;;
5878;SDS011;2965;42.640;23.370;2023-04-03T10:21:58;5.37;;;4.20;;
5878;SDS011;2965;42.640;23.370;2023-04-03T10:28:00;9.23;;;4.10;;
5878;SDS011;2965;42.640;23.370;2023-04-03T10:32:48;4.33;;;4.03;;
5878;SDS011;2965;42.640;23.370;2023-04-03T10:35:21;4.87;;;4.47;;
5878;SDS011;2965;42.640;23.370;2023-04-03T10:43:21;3.73;;;3.40;;
5878;SDS011;2965;42.640;23.370;2023-04-03T10:46:34;4.23;;;3.27;;
5878;SDS011;2965;42.640;23.370;2023-04-03T10:51:41;3.13;;;2.93;;
5878;SDS011;2965;42.640;23.370;2023-04-03T10:56:56;12.60;;;4.37;;
5878;SDS011;2965;42.640;23.370;2023-04-03T11:02:23;4.33;;;3.93;;
5878;SDS011;2965;42.640;23.370;2023-04-03T11:05:00;5.97;;;4.50;;
5878;SDS011;2965;42.640;23.370;2023-04-03T11:07:32;5.17;;;4.20;;
5878;SDS011;2965;42.640;23.370;2023-04-03T11:10:05;5.43;;;4.47;;
5878;SDS011;2965;42.640;23.370;2023-04-03T11:15:48;4.33;;;4.10;;
5878;SDS011;2965;42.640;23.370;2023-04-03T11:18:24;9.47;;;4.00;;
5878;SDS011;2965;42.640;23.370;2023-04-03T11:21:00;5.07;;;4.60;;
5878;SDS011;2965;42.640;23.370;2023-04-03T11:23:42;7.63;;;4.70;;
5878;SDS011;2965;42.640;23.370;2023-04-03T11:26:14;5.40;;;5.00;;
5878;SDS011;2965;42.640;23.370;2023-04-03T11:28:45;5.67;;;5.27;;
5878;SDS011;2965;42.640;23.370;2023-04-03T11:36:40;6.17;;;5.57;;
5878;SDS011;2965;42.640;23.370;2023-04-03T11:39:10;10.93;;;7.00;;
5878;SDS011;2965;42.640;23.370;2023-04-03T11:41:41;6.07;;;5.53;;
5878;SDS011;2965;42.640;23.370;2023-04-03T11:47:01;5.80;;;5.50;;
5878;SDS011;2965;42.640;23.370;2023-04-03T11:57:47;5.97;;;5.57;;
5878;SDS011;2965;42.640;23.370;2023-04-03T12:05:51;6.07;;;5.67;;
5878;SDS011;2965;42.640;23.370;2023-04-03T12:08:25;6.40;;;5.80;;
5878;SDS011;2965;42.640;23.370;2023-04-03T12:16:29;6.30;;;6.00;;
5878;SDS011;2965;42.640;23.370;2023-04-03T12:26:36;7.77;;;7.03;;
5878;SDS011;2965;42.640;23.370;2023-04-03T12:43:05;7.53;;;6.17;;
5878;SDS011;2965;42.640;23.370;2023-04-03T12:48:26;10.40;;;7.97;;
5878;SDS011;2965;42.640;23.370;2023-04-03T12:50:54;8.63;;;7.47;;
5878;SDS011;2965;42.640;23.370;2023-04-03T12:53:21;9.83;;;8.70;;
5878;SDS011;2965;42.640;23.370;2023-04-03T12:55:55;8.77;;;7.97;;
5878;SDS011;2965;42.640;23.370;2023-04-03T12:58:22;12.73;;;7.83;;
5878;SDS011;2965;42.640;23.370;2023-04-03T13:03:39;9.90;;;7.40;;
5878;SDS011;2965;42.640;23.370;2023-04-03T13:06:10;7.70;;;6.63;;
5878;SDS011;2965;42.640;23.370;2023-04-03T13:08:50;9.23;;;7.73;;
5878;SDS011;2965;42.640;23.370;2023-04-03T13:11:17;15.07;;;8.60;;
5878;SDS011;2965;42.640;23.370;2023-04-03T13:13:58;13.27;;;8.93;;
5878;SDS011;2965;42.640;23.370;2023-04-03T13:16:39;12.47;;;8.13;;
5878;SDS011;2965;42.640;23.370;2023-04-03T13:19:06;9.40;;;8.50;;
5878;SDS011;2965;42.640;23.370;2023-04-03T13:21:41;9.00;;;8.20;;
5878;SDS011;2965;42.640;23.370;2023-04-03T13:24:08;8.33;;;7.53;;
5878;SDS011;2965;42.640;23.370;2023-04-03T13:26:34;9.17;;;8.27;;
5878;SDS011;2965;42.640;23.370;2023-04-03T13:29:02;7.87;;;7.27;;
5878;SDS011;2965;42.640;23.370;2023-04-03T13:31:32;9.40;;;8.40;;
5878;SDS011;2965;42.640;23.370;2023-04-03T13:34:10;8.90;;;8.10;;
5878;SDS011;2965;42.640;23.370;2023-04-03T13:37:02;8.73;;;7.97;;
5878;SDS011;2965;42.640;23.370;2023-04-03T13:39:36;9.07;;;8.17;;
5878;SDS011;2965;42.640;23.370;2023-04-03T13:42:20;8.73;;;7.63;;
5878;SDS011;2965;42.640;23.370;2023-04-03T13:44:48;9.27;;;8.47;;
5878;SDS011;2965;42.640;23.370;2023-04-03T13:47:18;9.50;;;8.70;;
5878;SDS011;2965;42.640;23.370;2023-04-03T13:49:58;17.27;;;8.60;;
5878;SDS011;2965;42.640;23.370;2023-04-03T13:52:29;8.80;;;8.00;;
5878;SDS011;2965;42.640;23.370;2023-04-03T13:55:01;9.63;;;8.33;;
5878;SDS011;2965;42.640;23.370;2023-04-03T13:57:55;11.60;;;8.67;;
5878;SDS011;2965;42.640;23.370;2023-04-03T14:00:31;9.77;;;8.87;;
5878;SDS011;2965;42.640;23.370;2023-04-03T14:03:11;13.13;;;9.97;;
5878;SDS011;2965;42.640;23.370;2023-04-03T14:05:38;14.00;;;9.37;;
5878;SDS011;2965;42.640;23.370;2023-04-03T14:08:03;9.53;;;8.70;;
5878;SDS011;2965;42.640;23.370;2023-04-03T14:10:29;9.70;;;8.70;;
5878;SDS011;2965;42.640;23.370;2023-04-03T14:12:55;10.33;;;9.33;;
5878;SDS011;2965;42.640;23.370;2023-04-03T14:15:25;8.47;;;7.63;;
5878;SDS011;2965;42.640;23.370;2023-04-03T14:17:53;10.80;;;8.40;;
5878;SDS011;2965;42.640;23.370;2023-04-03T14:20:21;8.10;;;7.37;;
5878;SDS011;2965;42.640;23.370;2023-04-03T14:22:49;8.83;;;7.47;;
5878;SDS011;2965;42.640;23.370;2023-04-03T14:25:16;8.63;;;7.43;;
5878;SDS011;2965;42.640;23.370;2023-04-03T14:27:43;10.80;;;8.23;;
5878;SDS011;2965;42.640;23.370;2023-04-03T14:30:15;7.13;;;6.53;;
5878;SDS011;2965;42.640;23.370;2023-04-03T14:32:53;9.53;;;7.83;;
5878;SDS011;2965;42.640;23.370;2023-04-03T14:35:19;9.77;;;8.07;;
5878;SDS011;2965;42.640;23.370;2023-04-03T14:37:44;8.00;;;7.13;;
5878;SDS011;2965;42.640;23.370;2023-04-03T14:40:15;7.50;;;6.83;;
5878;SDS011;2965;42.640;23.370;2023-04-03T14:42:44;7.03;;;6.43;;
5878;SDS011;2965;42.640;23.370;2023-04-03T14:45:12;7.50;;;7.00;;
5878;SDS011;2965;42.640;23.370;2023-04-03T14:47:49;8.43;;;6.07;;
5878;SDS011;2965;42.640;23.370;2023-04-03T14:50:18;8.40;;;7.77;;
5878;SDS011;2965;42.640;23.370;2023-04-03T14:52:46;6.60;;;6.20;;
5878;SDS011;2965;42.640;23.370;2023-04-03T14:55:17;6.20;;;5.70;;
5878;SDS011;2965;42.640;23.370;2023-04-03T14:57:44;5.63;;;5.10;;
5878;SDS011;2965;42.640;23.370;2023-04-03T15:00:14;6.20;;;5.73;;
5878;SDS011;2965;42.640;23.370;2023-04-03T15:02:41;6.33;;;5.83;;
5878;SDS011;2965;42.640;23.370;2023-04-03T15:05:08;6.13;;;5.63;;
5878;SDS011;2965;42.640;23.370;2023-04-03T15:07:35;6.73;;;6.13;;
5878;SDS011;2965;42.640;23.370;2023-04-03T15:12:40;6.50;;;5.93;;
5878;SDS011;2965;42.640;23.370;2023-04-03T15:15:06;8.37;;;6.90;;
5878;SDS011;2965;42.640;23.370;2023-04-03T15:17:32;8.20;;;6.70;;
5878;SDS011;2965;42.640;23.370;2023-04-03T15:19:58;6.90;;;6.37;;
5878;SDS011;2965;42.640;23.370;2023-04-03T15:22:24;8.90;;;7.83;;
5878;SDS011;2965;42.640;23.370;2023-04-03T15:24:49;8.20;;;7.60;;
5878;SDS011;2965;42.640;23.370;2023-04-03T15:27:15;10.33;;;7.80;;
5878;SDS011;2965;42.640;23.370;2023-04-03T15:29:41;7.47;;;6.97;;
5878;SDS011;2965;42.640;23.370;2023-04-03T15:32:07;10.57;;;8.80;;
5878;SDS011;2965;42.640;23.370;2023-04-03T15:34:34;14.70;;;9.87;;
5878;SDS011;2965;42.640;23.370;2023-04-03T15:37:00;10.13;;;9.00;;
5878;SDS011;2965;42.640;23.370;2023-04-03T15:39:26;10.93;;;8.87;;
5878;SDS011;2965;42.640;23.370;2023-04-03T15:41:52;17.03;;;10.23;;
5878;SDS011;2965;42.640;23.370;2023-04-03T15:44:18;11.80;;;10.60;;
5878;SDS011;2965;42.640;23.370;2023-04-03T15:46:44;9.17;;;8.37;;
5878;SDS011;2965;42.640;23.370;2023-04-03T15:49:13;19.80;;;10.53;;
5878;SDS011;2965;42.640;23.370;2023-04-03T15:51:40;17.37;;;10.90;;
5878;SDS011;2965;42.640;23.370;2023-04-03T15:54:06;13.83;;;10.60;;
5878;SDS011;2965;42.640;23.370;2023-04-03T15:56:31;16.37;;;12.10;;
5878;SDS011;2965;42.640;23.370;2023-04-03T15:58:57;11.93;;;10.27;;
5878;SDS011;2965;42.640;23.370;2023-04-03T16:01:22;13.67;;;9.60;;
5878;SDS011;2965;42.640;23.370;2023-04-03T16:03:48;21.20;;;8.77;;
5878;SDS011;2965;42.640;23.370;2023-04-03T16:06:14;8.33;;;7.40;;
5878;SDS011;2965;42.640;23.370;2023-04-03T16:08:41;9.03;;;7.87;;
5878;SDS011;2965;42.640;23.370;2023-04-03T16:11:07;8.27;;;7.47;;
5878;SDS011;2965;42.640;23.370;2023-04-03T16:13:33;8.50;;;7.60;;
5878;SDS011;2965;42.640;23.370;2023-04-03T16:15:59;11.90;;;8.90;;
5878;SDS011;2965;42.640;23.370;2023-04-03T16:18:26;13.47;;;10.30;;
5878;SDS011;2965;42.640;23.370;2023-04-03T16:20:53;7.67;;;7.00;;
5878;SDS011;2965;42.640;23.370;2023-04-03T16:23:19;8.40;;;7.40;;
5878;SDS011;2965;42.640;23.370;2023-04-03T16:25:45;7.73;;;7.03;;
5878;SDS011;2965;42.640;23.370;2023-04-03T16:28:12;6.90;;;6.40;;
5878;SDS011;2965;42.640;23.370;2023-04-03T16:30:39;7.23;;;6.73;;
5878;SDS011;2965;42.640;23.370;2023-04-03T16:33:06;7.17;;;6.47;;
5878;SDS011;2965;42.640;23.370;2023-04-03T16:35:31;6.20;;;5.80;;
5878;SDS011;2965;42.640;23.370;2023-04-03T16:37:57;5.83;;;5.43;;
5878;SDS011;2965;42.640;23.370;2023-04-03T16:40:22;5.87;;;5.40;;
5878;SDS011;2965;42.640;23.370;2023-04-03T16:42:49;5.47;;;5.17;;
5878;SDS011;2965;42.640;23.370;2023-04-03T16:45:14;5.90;;;5.23;;
5878;SDS011;2965;42.640;23.370;2023-04-03T16:47:40;11.47;;;5.63;;
5878;SDS011;2965;42.640;23.370;2023-04-03T16:50:06;8.33;;;6.93;;
5878;SDS011;2965;42.640;23.370;2023-04-03T16:52:32;7.67;;;5.80;;
5878;SDS011;2965;42.640;23.370;2023-04-03T16:54:58;5.47;;;5.17;;
5878;SDS011;2965;42.640;23.370;2023-04-03T16:57:23;4.77;;;4.57;;
5878;SDS011;2965;42.640;23.370;2023-04-03T16:59:50;6.07;;;5.20;;
5878;SDS011;2965;42.640;23.370;2023-04-03T17:02:16;5.33;;;4.77;;
5878;SDS011;2965;42.640;23.370;2023-04-03T17:04:41;6.20;;;5.70;;
5878;SDS011;2965;42.640;23.370;2023-04-03T17:07:07;6.17;;;5.80;;
5878;SDS011;2965;42.640;23.370;2023-04-03T17:09:33;6.13;;;5.33;;
5878;SDS011;2965;42.640;23.370;2023-04-03T17:11:59;5.60;;;5.20;;
5878;SDS011;2965;42.640;23.370;2023-04-03T17:14:25;5.40;;;4.93;;
5878;SDS011;2965;42.640;23.370;2023-04-03T17:16:50;5.77;;;5.43;;
5878;SDS011;2965;42.640;23.370;2023-04-03T17:19:16;5.50;;;5.10;;
5878;SDS011;2965;42.640;23.370;2023-04-03T17:21:42;6.00;;;5.33;;
5878;SDS011;2965;42.640;23.370;2023-04-03T17:24:08;6.40;;;5.80;;
5878;SDS011;2965;42.640;23.370;2023-04-03T17:26:37;6.23;;;5.60;;
5878;SDS011;2965;42.640;23.370;2023-04-03T17:29:04;5.80;;;5.50;;
5878;SDS011;2965;42.640;23.370;2023-04-03T17:31:29;6.37;;;6.00;;
5878;SDS011;2965;42.640;23.370;2023-04-03T17:33:55;8.43;;;5.10;;
5878;SDS011;2965;42.640;23.370;2023-04-03T17:36:20;5.83;;;5.37;;
5878;SDS011;2965;42.640;23.370;2023-04-03T17:38:46;5.90;;;5.30;;
5878;SDS011;2965;42.640;23.370;2023-04-03T17:41:13;6.20;;;5.80;;
5878;SDS011;2965;42.640;23.370;2023-04-03T17:43:38;5.10;;;4.70;;
5878;SDS011;2965;42.640;23.370;2023-04-03T17:46:05;4.80;;;4.60;;
5878;SDS011;2965;42.640;23.370;2023-04-03T17:48:33;4.50;;;4.20;;
5878;SDS011;2965;42.640;23.370;2023-04-03T17:51:06;5.43;;;5.13;;
5878;SDS011;2965;42.640;23.370;2023-04-03T17:53:34;5.87;;;5.10;;
5878;SDS011;2965;42.640;23.370;2023-04-03T17:56:09;5.00;;;4.70;;
5878;SDS011;2965;42.640;23.370;2023-04-03T17:58:38;4.90;;;4.70;;
5878;SDS011;2965;42.640;23.370;2023-04-03T18:01:11;4.97;;;4.67;;
5878;SDS011;2965;42.640;23.370;2023-04-03T18:03:38;4.77;;;4.40;;
5878;SDS011;2965;42.640;23.370;2023-04-03T18:06:06;4.50;;;4.23;;
5878;SDS011;2965;42.640;23.370;2023-04-03T18:08:35;4.07;;;3.90;;
5878;SDS011;2965;42.640;23.370;2023-04-03T18:11:04;3.47;;;3.37;;
5878;SDS011;2965;42.640;23.370;2023-04-03T18:13:29;4.57;;;4.37;;
5878;SDS011;2965;42.640;23.370;2023-04-03T18:15:55;4.00;;;3.80;;
5878;SDS011;2965;42.640;23.370;2023-04-03T18:18:20;3.70;;;3.60;;
5878;SDS011;2965;42.640;23.370;2023-04-03T18:20:46;3.60;;;3.30;;
5878;SDS011;2965;42.640;23.370;2023-04-03T18:23:11;3.17;;;3.07;;
5878;SDS011;2965;42.640;23.370;2023-04-03T18:25:37;3.20;;;3.00;;
5878;SDS011;2965;42.640;23.370;2023-04-03T18:28:03;3.30;;;3.20;;
5878;SDS011;2965;42.640;23.370;2023-04-03T18:30:31;3.00;;;2.80;;
5878;SDS011;2965;42.640;23.370;2023-04-03T18:32:57;3.17;;;3.07;;
5878;SDS011;2965;42.640;23.370;2023-04-03T18:35:23;2.93;;;2.83;;
5878;SDS011;2965;42.640;23.370;2023-04-03T18:37:48;7.23;;;6.47;;
5878;SDS011;2965;42.640;23.370;2023-04-03T18:40:14;3.60;;;3.40;;
5878;SDS011;2965;42.640;23.370;2023-04-03T18:42:39;6.17;;;3.50;;
5878;SDS011;2965;42.640;23.370;2023-04-03T18:45:06;3.30;;;3.20;;
5878;SDS011;2965;42.640;23.370;2023-04-03T18:47:34;2.53;;;2.43;;
5878;SDS011;2965;42.640;23.370;2023-04-03T18:50:00;3.47;;;3.27;;
